Time;durP1;ratioP1;P1;durP2;ratioP2;P2;SDS_P1;SDS_P2;PMS_P1;PMS_P2;Temp;Humidity;BMP_temperature;BMP_pressure;BME280_temperature;BME280_humidity;BME280_pressure;Samples;Min_cycle;Max_cycle;Signal;HPM_P1;HPM_P2
2021/05/03 00:02:21;;;;;;;5.60;5.10;;;9.30;77.00;;;;;;5045293;28;20458;-89
2021/05/03 00:04:47;;;;;;;4.90;4.43;;;9.20;77.40;;;;;;5040048;28;20452;-89
2021/05/03 00:07:14;;;;;;;5.93;5.20;;;9.10;77.50;;;;;;5061522;28;20425;-89
2021/05/03 00:09:41;;;;;;;6.30;5.10;;;8.90;77.70;;;;;;5060095;28;20434;-89
2021/05/03 00:12:09;;;;;;;7.47;6.00;;;8.80;78.30;;;;;;5050672;28;20495;-89
2021/05/03 00:14:37;;;;;;;5.73;5.13;;;8.80;78.80;;;;;;5039998;28;20491;-90
2021/05/03 00:17:03;;;;;;;4.93;4.53;;;8.70;79.60;;;;;;5040494;28;20504;-89
2021/05/03 00:19:30;;;;;;;7.30;6.03;;;8.60;80.40;;;;;;5038119;28;20516;-89
2021/05/03 00:21:57;;;;;;;6.37;5.77;;;8.60;80.70;;;;;;5037582;28;20465;-89
2021/05/03 00:24:24;;;;;;;7.57;6.90;;;8.60;80.70;;;;;;5037243;28;20441;-89
2021/05/03 00:26:50;;;;;;;7.17;6.47;;;8.60;81.10;;;;;;5035937;28;20498;-89
2021/05/03 00:29:18;;;;;;;7.30;6.57;;;8.40;82.30;;;;;;5040447;28;20432;-89
2021/05/03 00:31:45;;;;;;;7.60;5.63;;;8.40;82.40;;;;;;5049149;28;20908;-89
2021/05/03 00:34:13;;;;;;;6.90;6.27;;;8.40;82.90;;;;;;5054165;28;20965;-89
2021/05/03 00:36:40;;;;;;;6.53;5.93;;;8.40;83.10;;;;;;5038270;28;20982;-89
2021/05/03 00:39:07;;;;;;;5.87;5.37;;;8.40;83.10;;;;;;5036528;28;20477;-89
2021/05/03 00:41:34;;;;;;;6.23;5.73;;;8.40;82.80;;;;;;5057013;28;20480;-89
2021/05/03 00:44:01;;;;;;;6.23;5.33;;;8.40;82.90;;;;;;5043128;28;20918;-89
2021/05/03 00:46:28;;;;;;;8.33;5.43;;;8.40;82.90;;;;;;5035910;28;20521;-89
2021/05/03 00:48:55;;;;;;;7.93;5.67;;;8.40;83.20;;;;;;5036674;28;20453;-88
2021/05/03 00:51:21;;;;;;;6.63;5.87;;;8.30;83.80;;;;;;5036442;28;20492;-89
2021/05/03 00:53:48;;;;;;;6.80;6.20;;;8.30;84.60;;;;;;5040474;28;20484;-88
2021/05/03 00:56:15;;;;;;;6.63;5.67;;;8.30;84.60;;;;;;5057141;28;20456;-89
2021/05/03 00:58:43;;;;;;;7.43;6.77;;;8.20;84.20;;;;;;5053217;28;20480;-89
2021/05/03 01:01:09;;;;;;;6.10;5.50;;;8.20;84.10;;;;;;5052543;28;20461;-89
2021/05/03 01:03:37;;;;;;;6.27;5.77;;;8.30;84.30;;;;;;5045796;28;20460;-89
2021/05/03 01:06:04;;;;;;;5.47;4.97;;;8.40;85.40;;;;;;5057507;28;20476;-89
2021/05/03 01:08:31;;;;;;;7.17;6.10;;;8.50;85.20;;;;;;5041108;28;20593;-89
2021/05/03 01:10:57;;;;;;;6.70;6.10;;;8.50;85.50;;;;;;5037874;28;20575;-89
2021/05/03 01:13:24;;;;;;;6.93;6.10;;;8.60;85.70;;;;;;5041142;28;20475;-89
2021/05/03 01:15:50;;;;;;;6.23;5.70;;;8.60;86.30;;;;;;5036174;28;20485;-89
2021/05/03 01:18:22;;;;;;;7.80;7.20;;;8.60;87.60;;;;;;5037336;28;20425;-89
2021/05/03 01:20:54;;;;;;;7.03;6.33;;;8.60;87.20;;;;;;5034307;28;20457;-89
2021/05/03 01:23:21;;;;;;;6.40;5.80;;;8.60;87.70;;;;;;5036395;28;20449;-90
2021/05/03 01:25:47;;;;;;;11.70;7.97;;;8.60;88.50;;;;;;5035207;28;20999;-90
2021/05/03 01:28:14;;;;;;;8.00;7.20;;;8.60;88.20;;;;;;5051226;28;20651;-88
2021/05/03 01:30:43;;;;;;;10.00;8.00;;;8.50;88.50;;;;;;5050681;28;20454;-89
2021/05/03 01:33:11;;;;;;;8.50;7.70;;;8.50;89.30;;;;;;5038102;28;20507;-89
2021/05/03 01:35:39;;;;;;;9.73;8.40;;;8.40;90.10;;;;;;5035647;28;20926;-89
2021/05/03 01:38:08;;;;;;;10.90;9.93;;;8.30;90.60;;;;;;5035821;28;20437;-88
2021/05/03 01:40:37;;;;;;;11.70;9.70;;;8.20;91.00;;;;;;5035193;28;20445;-89
2021/05/03 01:43:11;;;;;;;10.97;9.90;;;8.10;91.70;;;;;;5036154;28;20493;-89
2021/05/03 01:45:39;;;;;;;11.97;10.87;;;8.20;92.20;;;;;;5036035;28;20811;-88
2021/05/03 01:48:35;;;;;;;13.60;10.10;;;8.20;92.30;;;;;;5047811;28;20448;-94
2021/05/03 01:51:09;;;;;;;11.87;10.67;;;8.20;92.70;;;;;;5059389;28;20453;-94
2021/05/03 01:53:46;;;;;;;12.20;11.00;;;8.20;93.20;;;;;;5059813;28;20516;-94
2021/05/03 01:56:26;;;;;;;12.23;11.00;;;8.10;93.40;;;;;;5059821;28;20433;-95
2021/05/03 01:58:56;;;;;;;14.07;12.70;;;8.00;93.70;;;;;;5059444;28;20437;-93
2021/05/03 02:01:24;;;;;;;13.57;12.10;;;8.00;94.20;;;;;;5055485;28;20476;-94
2021/05/03 02:04:01;;;;;;;14.70;12.47;;;8.00;94.30;;;;;;5057794;28;20450;-93
2021/05/03 02:06:33;;;;;;;13.43;12.03;;;8.00;94.60;;;;;;5057367;28;20426;-96
2021/05/03 02:09:12;;;;;;;12.77;11.30;;;8.00;94.60;;;;;;5054937;28;20429;-94
2021/05/03 02:11:49;;;;;;;14.30;11.10;;;8.00;95.00;;;;;;5049235;28;20487;-95
2021/05/03 02:14:16;;;;;;;12.27;11.00;;;7.90;95.20;;;;;;5038689;28;20469;-87
2021/05/03 02:16:43;;;;;;;11.80;10.60;;;7.90;95.80;;;;;;5034070;28;20507;-90
2021/05/03 02:19:10;;;;;;;12.77;11.47;;;7.90;96.20;;;;;;5047337;28;20457;-92
2021/05/03 02:21:36;;;;;;;12.20;10.90;;;7.90;96.10;;;;;;5034393;28;21023;-89
2021/05/03 02:24:05;;;;;;;11.57;10.40;;;7.80;96.10;;;;;;5034400;28;20520;-88
2021/05/03 02:26:31;;;;;;;12.40;11.20;;;7.90;96.30;;;;;;5038049;28;20457;-88
2021/05/03 02:28:57;;;;;;;11.93;10.73;;;7.80;96.10;;;;;;5058126;28;20429;-87
2021/05/03 02:31:23;;;;;;;12.20;11.00;;;7.70;96.30;;;;;;5046924;28;20465;-89
2021/05/03 02:33:50;;;;;;;11.93;10.70;;;7.60;96.60;;;;;;5049199;28;20472;-88
2021/05/03 02:36:18;;;;;;;14.37;12.87;;;7.60;96.70;;;;;;5053061;28;20944;-89
2021/05/03 02:38:45;;;;;;;12.00;10.90;;;7.50;96.80;;;;;;5032623;28;20527;-89
2021/05/03 02:41:12;;;;;;;11.70;10.23;;;7.40;97.00;;;;;;5034468;28;20457;-89
2021/05/03 02:43:38;;;;;;;14.70;12.03;;;7.40;96.70;;;;;;5034130;28;20989;-88
2021/05/03 02:46:05;;;;;;;10.67;9.57;;;7.30;97.20;;;;;;5036300;28;20458;-88
2021/05/03 02:48:32;;;;;;;12.37;11.27;;;7.30;97.90;;;;;;5032846;28;20450;-89
2021/05/03 02:50:58;;;;;;;13.63;11.13;;;7.20;98.10;;;;;;5032879;28;20870;-89
2021/05/03 02:53:24;;;;;;;12.13;11.03;;;7.10;98.50;;;;;;5034167;28;20441;-89
2021/05/03 02:55:51;;;;;;;12.20;11.10;;;7.10;99.00;;;;;;5032684;28;20488;-89
2021/05/03 02:58:18;;;;;;;13.90;11.27;;;7.10;99.30;;;;;;5031945;28;20588;-89
2021/05/03 03:00:44;;;;;;;12.67;10.63;;;7.20;99.70;;;;;;5026660;28;20873;-89
2021/05/03 03:03:10;;;;;;;11.20;10.10;;;7.10;99.90;;;;;;5037950;28;20511;-89
2021/05/03 03:05:37;;;;;;;12.50;10.27;;;7.00;99.90;;;;;;5050064;28;20853;-89
2021/05/03 03:08:04;;;;;;;12.37;9.87;;;7.00;99.90;;;;;;5049298;28;20459;-89
2021/05/03 03:10:31;;;;;;;11.87;10.70;;;7.00;99.90;;;;;;5035183;28;20528;-89
2021/05/03 03:12:59;;;;;;;12.57;11.30;;;7.00;99.90;;;;;;5032524;28;20473;-89
2021/05/03 03:15:29;;;;;;;11.33;10.33;;;7.00;99.90;;;;;;5033981;28;20469;-88
2021/05/03 03:17:56;;;;;;;12.43;11.23;;;7.00;99.90;;;;;;5032215;28;20998;-89
2021/05/03 03:20:23;;;;;;;14.30;12.80;;;7.00;99.90;;;;;;5033222;28;20472;-89
2021/05/03 03:22:49;;;;;;;14.33;11.57;;;7.00;99.90;;;;;;5033292;28;20485;-89
2021/05/03 03:25:18;;;;;;;11.70;10.60;;;6.90;99.90;;;;;;5048701;28;20460;-88
2021/05/03 03:27:44;;;;;;;14.17;12.67;;;6.90;99.90;;;;;;5051925;28;20433;-88
2021/05/03 03:30:13;;;;;;;13.50;12.13;;;6.90;99.90;;;;;;5054717;28;20452;-88
2021/05/03 03:32:43;;;;;;;15.43;11.73;;;6.80;99.90;;;;;;5050819;28;20466;-88
2021/05/03 03:35:10;;;;;;;13.20;11.80;;;6.90;99.90;;;;;;5051335;28;20492;-88
2021/05/03 03:37:37;;;;;;;17.77;11.60;;;7.00;99.90;;;;;;5054095;28;20441;-88
2021/05/03 03:40:04;;;;;;;13.93;12.53;;;7.00;99.90;;;;;;5061003;28;20777;-88
2021/05/03 03:42:30;;;;;;;13.20;11.43;;;7.00;99.90;;;;;;5062915;28;20495;-89
2021/05/03 03:44:57;;;;;;;15.40;13.90;;;6.90;99.90;;;;;;5063115;28;20452;-88
2021/05/03 03:47:24;;;;;;;13.27;11.97;;;6.90;99.90;;;;;;5063852;28;20436;-88
2021/05/03 03:49:51;;;;;;;14.80;12.30;;;6.90;99.90;;;;;;5063586;28;20451;-88
2021/05/03 03:52:18;;;;;;;13.63;12.30;;;6.90;99.90;;;;;;5062883;28;20476;-89
2021/05/03 03:54:44;;;;;;;14.77;12.83;;;7.00;99.90;;;;;;5056701;28;20524;-88
2021/05/03 03:57:10;;;;;;;17.77;14.43;;;7.00;99.90;;;;;;5047058;28;20437;-87
2021/05/03 03:59:41;;;;;;;17.60;13.73;;;7.00;99.90;;;;;;5040541;28;20891;-88
2021/05/03 04:02:08;;;;;;;15.43;13.90;;;7.00;99.90;;;;;;5041680;28;20560;-88
2021/05/03 04:04:36;;;;;;;16.47;14.10;;;7.10;99.90;;;;;;5041595;28;20857;-88
2021/05/03 04:07:09;;;;;;;16.93;14.63;;;7.00;99.90;;;;;;5061499;28;20459;-88
2021/05/03 04:09:40;;;;;;;16.50;13.97;;;7.00;99.90;;;;;;5060026;28;20445;-88
2021/05/03 04:12:36;;;;;;;18.83;15.43;;;7.00;99.90;;;;;;5061023;28;20452;-88
2021/05/03 04:26:06;;;;;;;22.77;17.77;;;6.80;99.90;;;;;;5057820;28;20451;-87
2021/05/03 04:28:32;;;;;;;20.30;15.63;;;6.70;99.90;;;;;;5041057;28;20429;-89
2021/05/03 04:30:59;;;;;;;17.63;15.77;;;6.80;99.90;;;;;;5039834;28;20440;-89
2021/05/03 04:33:25;;;;;;;19.30;16.60;;;6.80;99.90;;;;;;5039738;28;20519;-89
2021/05/03 04:35:51;;;;;;;17.80;16.00;;;6.80;99.90;;;;;;5045344;28;20483;-89
2021/05/03 04:38:19;;;;;;;18.10;16.03;;;6.80;99.90;;;;;;5041962;28;20437;-88
2021/05/03 04:40:46;;;;;;;16.10;14.40;;;6.90;99.90;;;;;;5039500;28;20453;-88
2021/05/03 04:43:12;;;;;;;17.77;15.80;;;6.80;99.90;;;;;;5039290;28;20433;-88
2021/05/03 04:45:39;;;;;;;19.33;14.97;;;6.80;99.90;;;;;;5038725;28;20968;-89
2021/05/03 04:48:06;;;;;;;19.53;17.47;;;6.90;99.90;;;;;;5037464;28;20441;-90
2021/05/03 04:50:33;;;;;;;22.57;17.67;;;6.90;99.90;;;;;;5032752;28;20455;-89
2021/05/03 04:52:59;;;;;;;22.67;15.70;;;6.90;99.90;;;;;;5036020;28;20543;-90
2021/05/03 04:55:27;;;;;;;18.03;16.10;;;6.90;99.90;;;;;;5038727;28;20464;-89
2021/05/03 04:57:53;;;;;;;19.27;16.50;;;7.10;99.90;;;;;;5032994;28;21369;-88
2021/05/03 05:00:21;;;;;;;20.80;16.73;;;7.20;99.90;;;;;;5034710;28;20453;-89
2021/05/03 05:02:48;;;;;;;19.90;17.77;;;7.30;99.90;;;;;;5036324;28;20473;-89
2021/05/03 05:05:15;;;;;;;19.23;17.10;;;7.30;99.90;;;;;;5033761;28;20442;-89
2021/05/03 05:07:41;;;;;;;19.03;17.10;;;7.30;99.90;;;;;;5038335;28;20572;-88
2021/05/03 05:10:10;;;;;;;20.37;16.40;;;7.40;99.90;;;;;;5047341;28;20458;-88
2021/05/03 05:12:37;;;;;;;19.97;15.43;;;7.70;99.90;;;;;;5057813;28;20492;-88
2021/05/03 05:15:09;;;;;;;23.73;17.20;;;8.10;99.90;;;;;;5048664;28;20472;-90
2021/05/03 05:17:37;;;;;;;17.50;15.77;;;8.60;99.90;;;;;;5042121;28;20460;-90
2021/05/03 05:20:07;;;;;;;16.93;15.23;;;9.00;99.90;;;;;;5056784;28;20512;-88
2021/05/03 05:22:33;;;;;;;17.63;15.50;;;9.10;99.40;;;;;;5059125;28;20483;-89
2021/05/03 05:25:04;;;;;;;17.60;15.80;;;9.30;99.20;;;;;;5039575;28;20437;-89
2021/05/03 05:27:31;;;;;;;16.53;14.93;;;9.70;98.50;;;;;;5058861;28;20437;-88
2021/05/03 05:29:58;;;;;;;17.30;15.47;;;10.00;96.40;;;;;;5040701;28;20450;-90
2021/05/03 05:32:28;;;;;;;18.03;16.13;;;10.10;95.10;;;;;;5035403;28;20469;-89
2021/05/03 05:34:54;;;;;;;19.90;16.90;;;10.10;95.30;;;;;;5042748;28;20496;-89
2021/05/03 05:37:23;;;;;;;17.80;16.03;;;10.40;95.00;;;;;;5037991;28;20496;-90
2021/05/03 05:39:50;;;;;;;17.40;15.80;;;10.70;94.40;;;;;;5045865;28;20437;-89
2021/05/03 05:42:16;;;;;;;20.10;17.00;;;10.90;93.30;;;;;;5056820;28;20476;-89
2021/05/03 05:44:46;;;;;;;20.30;16.30;;;10.80;92.90;;;;;;5042306;28;20641;-89
2021/05/03 05:47:15;;;;;;;19.80;15.23;;;10.80;92.60;;;;;;5041757;28;20457;-90
2021/05/03 05:49:42;;;;;;;15.20;13.70;;;10.70;92.20;;;;;;5037145;28;20461;-88
2021/05/03 05:52:11;;;;;;;17.00;15.30;;;10.50;92.10;;;;;;5042554;28;20473;-89
2021/05/03 05:54:37;;;;;;;16.83;14.80;;;10.30;92.40;;;;;;5039171;28;20981;-89
2021/05/03 05:57:04;;;;;;;17.93;15.80;;;10.00;92.90;;;;;;5046817;28;20499;-90
2021/05/03 05:59:31;;;;;;;16.30;14.80;;;9.70;93.90;;;;;;5048448;28;20457;-89
2021/05/03 06:01:57;;;;;;;18.60;16.60;;;9.60;95.00;;;;;;5049348;28;20509;-90
2021/05/03 06:04:32;;;;;;;17.80;15.63;;;10.10;94.60;;;;;;5056276;28;20453;-90
2021/05/03 06:06:59;;;;;;;16.43;14.70;;;10.90;93.50;;;;;;5040365;28;20483;-90
2021/05/03 06:09:26;;;;;;;15.37;13.20;;;11.80;91.60;;;;;;5048218;28;20463;-89
2021/05/03 06:11:55;;;;;;;15.90;14.40;;;12.50;89.80;;;;;;5047205;28;20474;-89
2021/05/03 06:14:26;;;;;;;15.73;14.20;;;13.00;85.50;;;;;;5040222;28;20495;-89
2021/05/03 06:16:55;;;;;;;15.23;13.83;;;13.30;83.20;;;;;;5039578;28;20461;-90
2021/05/03 06:19:26;;;;;;;16.53;14.93;;;13.60;80.70;;;;;;5051288;28;20442;-90
2021/05/03 06:21:52;;;;;;;15.70;14.10;;;13.70;79.10;;;;;;5058222;28;20480;-89
2021/05/03 06:24:28;;;;;;;15.83;14.23;;;13.80;78.10;;;;;;5058657;28;20445;-89
2021/05/03 06:26:59;;;;;;;15.17;13.70;;;14.10;77.90;;;;;;5052849;28;20436;-89
2021/05/03 06:29:34;;;;;;;14.87;13.30;;;14.10;75.10;;;;;;5055735;28;20977;-90
2021/05/03 06:32:05;;;;;;;16.67;14.90;;;14.20;74.80;;;;;;5040787;28;21006;-90
2021/05/03 06:35:26;;;;;;;15.20;13.83;;;14.50;74.60;;;;;;5051604;28;20482;-89
2021/05/03 06:38:06;;;;;;;14.47;13.03;;;14.90;73.00;;;;;;5053067;28;20464;-90
2021/05/03 06:40:42;;;;;;;14.43;13.13;;;14.90;72.00;;;;;;5039221;28;20545;-90
2021/05/03 06:43:12;;;;;;;14.07;12.67;;;15.40;70.60;;;;;;5035686;28;21028;-90
2021/05/03 06:45:41;;;;;;;13.80;12.60;;;15.60;68.70;;;;;;5036178;28;20445;-89
2021/05/03 06:48:24;;;;;;;14.90;13.70;;;15.80;68.30;;;;;;5034880;28;20441;-90
2021/05/03 06:50:56;;;;;;;13.17;12.07;;;16.50;67.20;;;;;;5036744;28;20512;-90
2021/05/03 06:53:37;;;;;;;13.00;11.90;;;17.20;65.70;;;;;;5036348;28;20450;-91
2021/05/03 06:56:04;;;;;;;12.43;11.17;;;17.60;61.70;;;;;;5035662;28;20484;-90
2021/05/03 06:58:38;;;;;;;14.33;12.93;;;17.70;59.90;;;;;;5035450;28;20877;-89
2021/05/03 07:04:14;;;;;;;13.73;12.37;;;17.90;58.60;;;;;;5011622;28;20509;-90
2021/05/03 07:06:51;;;;;;;11.47;10.37;;;17.80;58.90;;;;;;5030088;28;20457;-90
2021/05/03 07:09:39;;;;;;;12.83;11.40;;;18.50;58.60;;;;;;5043423;28;20459;-90
2021/05/03 07:12:09;;;;;;;12.83;11.67;;;19.60;56.00;;;;;;5041144;28;20464;-90
2021/05/03 07:14:40;;;;;;;12.00;10.80;;;19.60;53.40;;;;;;5039422;28;20461;-89
2021/05/03 07:17:11;;;;;;;11.70;10.50;;;19.40;53.00;;;;;;5054243;28;20446;-90
2021/05/03 07:19:43;;;;;;;12.10;11.03;;;19.60;53.10;;;;;;5053923;28;20446;-90
2021/05/03 07:22:11;;;;;;;10.37;9.60;;;19.60;52.70;;;;;;5046677;28;20484;-90
2021/05/03 07:24:40;;;;;;;10.97;9.47;;;19.70;52.30;;;;;;5048894;28;20525;-89
2021/05/03 07:27:08;;;;;;;10.23;9.20;;;20.40;52.20;;;;;;5046930;28;20434;-90
2021/05/03 07:29:35;;;;;;;10.83;9.80;;;21.30;50.20;;;;;;5046199;28;20509;-90
2021/05/03 07:32:01;;;;;;;11.20;10.20;;;21.50;49.30;;;;;;5057723;28;20476;-88
2021/05/03 07:34:28;;;;;;;11.03;9.93;;;22.00;48.90;;;;;;5048765;28;20503;-91
2021/05/03 07:36:54;;;;;;;10.00;9.20;;;22.30;47.60;;;;;;5040925;28;20445;-90
2021/05/03 07:39:21;;;;;;;10.20;9.30;;;22.60;46.60;;;;;;5038729;28;20625;-90
2021/05/03 07:41:56;;;;;;;10.90;10.00;;;22.90;46.10;;;;;;5036847;28;20474;-90
2021/05/03 07:44:23;;;;;;;10.00;9.20;;;22.90;45.10;;;;;;5036702;28;20437;-90
2021/05/03 07:46:49;;;;;;;10.87;9.97;;;23.00;45.20;;;;;;5035563;28;20968;-90
2021/05/03 07:49:16;;;;;;;10.07;9.17;;;23.20;45.10;;;;;;5036449;28;20532;-89
2021/05/03 07:51:42;;;;;;;9.20;8.53;;;23.50;45.00;;;;;;5036584;28;20470;-90
2021/05/03 07:54:08;;;;;;;9.53;8.73;;;23.30;43.50;;;;;;5035576;28;20450;-90
2021/05/03 07:56:35;;;;;;;10.00;9.17;;;23.00;43.90;;;;;;5036289;28;20455;-89
2021/05/03 07:59:03;;;;;;;9.93;9.17;;;22.70;43.90;;;;;;5036149;28;20454;-91
2021/05/03 08:01:29;;;;;;;8.67;7.97;;;23.20;43.40;;;;;;5035032;28;20468;-91
2021/05/03 08:03:55;;;;;;;8.67;7.97;;;22.70;43.70;;;;;;5036020;28;20461;-91
2021/05/03 08:06:22;;;;;;;9.33;8.63;;;22.80;43.30;;;;;;5045484;28;20453;-90
2021/05/03 08:08:52;;;;;;;9.27;8.57;;;22.90;43.80;;;;;;5056566;28;20474;-89
2021/05/03 08:11:19;;;;;;;9.43;8.63;;;23.40;42.30;;;;;;5056964;28;20496;-89
2021/05/03 08:14:00;;;;;;;9.07;8.30;;;22.00;42.10;;;;;;5057122;28;20433;-90
2021/05/03 08:16:29;;;;;;;10.43;9.43;;;22.00;43.50;;;;;;5056137;28;20475;-90
2021/05/03 08:18:56;;;;;;;9.47;8.70;;;22.90;42.50;;;;;;5044790;28;20473;-91
2021/05/03 08:21:25;;;;;;;10.67;9.73;;;21.40;43.00;;;;;;5047512;28;20494;-91
2021/05/03 08:23:51;;;;;;;9.83;8.93;;;19.30;45.10;;;;;;5045896;28;20500;-90
2021/05/03 08:26:18;;;;;;;9.40;8.60;;;17.70;47.70;;;;;;5044850;28;20529;-91
2021/05/03 08:28:48;;;;;;;9.03;8.13;;;17.20;49.60;;;;;;5048535;28;20529;-91
2021/05/03 08:31:16;;;;;;;9.33;8.53;;;16.80;50.90;;;;;;5048834;28;20477;-90
2021/05/03 08:33:44;;;;;;;13.10;8.90;;;16.50;52.70;;;;;;5053180;28;20437;-89
2021/05/03 08:36:12;;;;;;;10.13;9.23;;;15.90;53.50;;;;;;5048111;28;21004;-90
2021/05/03 08:38:42;;;;;;;10.20;9.20;;;15.60;54.40;;;;;;5056539;28;20448;-90
2021/05/03 08:41:09;;;;;;;9.40;8.60;;;15.40;54.80;;;;;;5059987;28;20451;-89
2021/05/03 08:43:40;;;;;;;10.33;8.90;;;15.30;55.50;;;;;;5056564;28;20453;-88
2021/05/03 08:46:09;;;;;;;10.23;9.20;;;15.30;55.50;;;;;;5038967;28;20526;-90
2021/05/03 08:48:41;;;;;;;12.60;9.67;;;15.40;55.40;;;;;;5039528;28;20481;-88
2021/05/03 08:51:15;;;;;;;9.20;8.30;;;15.40;55.60;;;;;;5037195;28;20473;-89
2021/05/03 08:53:54;;;;;;;8.90;8.10;;;15.40;55.50;;;;;;5032381;28;20453;-90
2021/05/03 08:56:20;;;;;;;9.17;8.33;;;15.60;55.20;;;;;;5023977;28;20462;-89
2021/05/03 08:58:47;;;;;;;9.80;9.00;;;15.90;55.10;;;;;;5035682;28;20457;-89
2021/05/03 09:01:14;;;;;;;8.70;8.00;;;16.30;54.00;;;;;;5040895;28;20500;-89
2021/05/03 09:03:43;;;;;;;9.60;8.60;;;16.80;53.10;;;;;;5042427;28;20457;-90
2021/05/03 09:06:12;;;;;;;9.40;8.50;;;18.80;49.80;;;;;;5040865;28;20451;-90
2021/05/03 09:08:40;;;;;;;8.63;7.93;;;21.20;47.60;;;;;;5042359;28;20824;-90
2021/05/03 09:11:14;;;;;;;9.30;8.40;;;22.00;45.20;;;;;;5058434;28;20534;-89
2021/05/03 09:13:56;;;;;;;8.40;7.80;;;23.20;42.90;;;;;;5048749;28;20453;-89
2021/05/03 09:16:52;;;;;;;8.60;7.80;;;25.20;41.10;;;;;;5057969;28;20504;-89
2021/05/03 09:19:42;;;;;;;7.60;6.97;;;25.70;38.20;;;;;;5050101;28;20458;-89
2021/05/03 09:22:13;;;;;;;9.37;8.57;;;26.30;37.00;;;;;;5040437;28;20475;-90
2021/05/03 09:24:40;;;;;;;7.83;7.23;;;27.10;34.60;;;;;;5044899;28;20480;-89
2021/05/03 09:27:27;;;;;;;10.87;7.83;;;26.10;35.50;;;;;;5059524;28;20441;-89
2021/05/03 09:29:58;;;;;;;7.83;7.23;;;26.70;35.80;;;;;;5033254;28;20980;-90
2021/05/03 09:32:30;;;;;;;7.87;7.30;;;26.00;35.70;;;;;;5038377;28;20559;-89
2021/05/03 09:34:58;;;;;;;7.67;7.10;;;24.00;37.40;;;;;;5038282;28;20558;-89
2021/05/03 09:37:34;;;;;;;8.37;7.67;;;22.50;39.20;;;;;;5037324;28;20548;-89
2021/05/03 09:40:07;;;;;;;7.90;7.30;;;21.50;40.50;;;;;;5039657;28;20465;-89
2021/05/03 09:42:48;;;;;;;9.13;8.40;;;21.40;41.50;;;;;;5036043;28;20529;-89
2021/05/03 09:45:19;;;;;;;11.10;8.20;;;20.80;40.60;;;;;;5035750;28;20436;-89
2021/05/03 09:47:49;;;;;;;8.20;7.50;;;20.10;42.70;;;;;;5035002;28;20451;-90
2021/05/03 09:50:20;;;;;;;7.90;7.13;;;21.70;42.00;;;;;;5045191;28;20490;-89
2021/05/03 09:53:13;;;;;;;7.37;6.30;;;24.00;40.30;;;;;;5044179;28;20470;-90
2021/05/03 09:55:41;;;;;;;6.23;5.80;;;24.80;36.10;;;;;;5035145;28;21057;-89
2021/05/03 09:58:14;;;;;;;6.97;6.27;;;23.70;34.40;;;;;;5035633;28;20458;-90
2021/05/03 10:00:42;;;;;;;7.27;6.57;;;22.70;35.60;;;;;;5036667;28;20465;-89
2021/05/03 10:03:33;;;;;;;6.67;6.10;;;22.40;37.40;;;;;;5036710;28;20543;-88
2021/05/03 10:06:01;;;;;;;6.27;5.67;;;22.10;37.60;;;;;;5035097;28;20548;-88
2021/05/03 10:08:28;;;;;;;6.30;5.77;;;21.90;37.10;;;;;;5039890;28;20475;-89
2021/05/03 10:10:58;;;;;;;6.50;5.90;;;21.70;37.20;;;;;;5048871;28;20439;-89
2021/05/03 10:13:25;;;;;;;7.60;6.90;;;21.50;37.80;;;;;;5038310;28;20490;-89
2021/05/03 10:15:55;;;;;;;6.13;5.57;;;21.50;38.50;;;;;;5036499;28;20488;-89
2021/05/03 10:18:23;;;;;;;6.53;6.03;;;22.50;37.50;;;;;;5036333;28;20458;-90
2021/05/03 10:20:51;;;;;;;6.40;5.83;;;22.30;37.20;;;;;;5035764;28;20971;-90
2021/05/03 10:23:20;;;;;;;6.93;6.23;;;21.80;37.70;;;;;;5036782;28;20448;-90
2021/05/03 10:25:55;;;;;;;6.30;5.80;;;21.30;38.20;;;;;;5045699;28;20451;-90
2021/05/03 10:28:30;;;;;;;7.37;6.67;;;20.30;40.40;;;;;;5058244;28;20441;-89
2021/05/03 10:30:58;;;;;;;5.80;5.30;;;19.80;41.80;;;;;;5038416;28;20528;-91
2021/05/03 10:33:35;;;;;;;6.70;6.10;;;19.50;42.40;;;;;;5034762;28;20977;-90
2021/05/03 10:36:03;;;;;;;7.27;6.30;;;19.30;42.90;;;;;;5029961;28;20481;-89
2021/05/03 10:38:36;;;;;;;7.87;6.90;;;19.10;43.90;;;;;;5038280;28;20446;-90
2021/05/03 10:41:04;;;;;;;7.23;6.53;;;19.00;43.80;;;;;;5034488;28;20467;-90
2021/05/03 10:43:40;;;;;;;7.80;5.80;;;19.00;44.40;;;;;;5042497;28;20444;-89
2021/05/03 10:46:14;;;;;;;6.30;5.80;;;19.10;43.90;;;;;;5037851;28;20444;-90
2021/05/03 10:48:51;;;;;;;6.93;6.23;;;18.80;43.10;;;;;;5037507;28;20535;-90
2021/05/03 10:51:38;;;;;;;7.00;6.10;;;18.30;43.00;;;;;;5041818;28;20457;-88
2021/05/03 10:54:48;;;;;;;6.23;5.63;;;17.90;43.80;;;;;;5034650;28;20509;-90
2021/05/03 10:57:38;;;;;;;5.47;4.97;;;17.60;44.10;;;;;;5033083;28;20450;-90
2021/05/03 11:08:31;;;;;;;5.63;5.13;;;17.90;43.20;;;;;;5039134;28;20493;-84
2021/05/03 11:11:11;;;;;;;6.00;5.50;;;17.80;41.80;;;;;;5039058;28;20534;-85
2021/05/03 11:13:57;;;;;;;5.90;5.30;;;18.20;42.60;;;;;;5039608;28;20548;-84
2021/05/03 11:16:51;;;;;;;6.17;5.50;;;21.70;40.90;;;;;;5024362;28;20489;-83
2021/05/03 11:19:49;;;;;;;5.97;5.47;;;22.50;35.40;;;;;;5041703;28;20454;-83
2021/05/03 11:22:18;;;;;;;5.60;5.00;;;21.50;37.00;;;;;;5037800;28;20480;-80
2021/05/03 11:24:50;;;;;;;5.63;5.13;;;21.00;37.00;;;;;;5028193;28;20531;-80
2021/05/03 11:27:23;;;;;;;5.30;4.90;;;19.70;38.60;;;;;;5039574;28;20871;-80
2021/05/03 11:29:56;;;;;;;5.20;4.70;;;19.30;39.40;;;;;;5039492;28;20441;-80
2021/05/03 11:32:30;;;;;;;5.40;4.73;;;19.10;39.70;;;;;;5019632;28;20943;-82
2021/05/03 11:35:02;;;;;;;5.07;4.67;;;18.80;40.30;;;;;;5033465;28;20489;-82
2021/05/03 11:37:36;;;;;;;4.57;4.17;;;18.50;40.60;;;;;;5034184;28;20450;-84
2021/05/03 11:40:15;;;;;;;4.20;3.90;;;18.30;40.40;;;;;;5034940;28;20477;-82
2021/05/03 11:43:02;;;;;;;5.43;4.00;;;18.30;40.60;;;;;;5041455;28;20460;-82
2021/05/03 11:45:30;;;;;;;7.07;5.30;;;18.70;40.30;;;;;;5036293;28;20476;-83
2021/05/03 11:47:58;;;;;;;4.90;4.50;;;19.00;39.80;;;;;;5041281;28;20449;-83
2021/05/03 11:50:26;;;;;;;4.30;3.90;;;19.10;39.90;;;;;;5042835;28;20503;-82
2021/05/03 11:52:52;;;;;;;4.30;3.90;;;19.00;38.80;;;;;;5039520;28;20445;-82
2021/05/03 11:55:20;;;;;;;3.90;3.60;;;19.00;38.40;;;;;;5026783;28;20466;-83
2021/05/03 11:57:48;;;;;;;6.30;4.93;;;19.60;37.90;;;;;;5017636;28;20454;-83
2021/05/03 12:00:17;;;;;;;4.63;4.13;;;19.40;38.70;;;;;;5020185;28;20536;-85
2021/05/03 12:02:44;;;;;;;4.43;4.00;;;19.00;39.20;;;;;;5022079;28;20435;-83
2021/05/03 12:05:15;;;;;;;3.60;3.30;;;18.70;38.70;;;;;;5027761;28;20445;-86
2021/05/03 12:07:42;;;;;;;3.40;2.97;;;18.30;39.60;;;;;;5041433;28;20489;-84
2021/05/03 12:10:11;;;;;;;3.63;3.33;;;18.00;38.60;;;;;;5042070;28;20484;-85
2021/05/03 12:12:38;;;;;;;3.43;3.13;;;18.60;39.10;;;;;;5050880;28;21060;-85
2021/05/03 12:15:07;;;;;;;3.80;3.50;;;20.70;37.40;;;;;;5047459;28;20536;-85
2021/05/03 12:17:34;;;;;;;5.43;3.37;;;21.80;34.90;;;;;;5026700;28;20804;-87
2021/05/03 12:20:10;;;;;;;4.13;3.33;;;22.00;33.80;;;;;;5021819;28;20447;-85
2021/05/03 12:22:38;;;;;;;3.60;3.30;;;23.40;31.90;;;;;;5025510;28;20454;-85
2021/05/03 12:25:07;;;;;;;10.23;9.53;;;22.00;31.10;;;;;;5033871;28;20447;-85
2021/05/03 12:27:35;;;;;;;3.50;3.20;;;22.20;32.80;;;;;;5038119;28;20521;-86
2021/05/03 12:30:02;;;;;;;3.03;2.80;;;22.40;31.80;;;;;;5019815;28;20615;-85
2021/05/03 12:32:34;;;;;;;3.20;2.83;;;22.10;31.70;;;;;;5023854;28;20535;-85
2021/05/03 12:35:06;;;;;;;3.40;2.73;;;21.70;32.30;;;;;;5037584;28;20485;-86
2021/05/03 12:37:34;;;;;;;4.57;4.27;;;22.40;34.20;;;;;;5033217;28;20464;-86
2021/05/03 12:40:07;;;;;;;5.53;5.13;;;25.20;32.40;;;;;;5019496;28;20812;-84
2021/05/03 12:42:36;;;;;;;4.40;2.70;;;25.20;29.80;;;;;;5027856;28;20488;-85
2021/05/03 12:45:18;;;;;;;3.47;3.17;;;23.90;29.40;;;;;;5038609;28;20440;-84
2021/05/03 12:47:53;;;;;;;3.50;3.17;;;23.10;30.60;;;;;;5040115;28;20510;-84
2021/05/03 12:50:26;;;;;;;3.10;2.63;;;22.20;31.90;;;;;;5044470;28;20503;-85
2021/05/03 12:53:11;;;;;;;4.13;2.47;;;22.30;32.90;;;;;;5036400;28;20465;-84
2021/05/03 12:55:52;;;;;;;3.10;2.90;;;23.40;31.40;;;;;;5038732;28;20559;-84
2021/05/03 12:58:24;;;;;;;4.40;4.00;;;25.50;29.50;;;;;;5042090;28;20473;-85
2021/05/03 13:01:00;;;;;;;3.23;3.03;;;24.90;29.70;;;;;;5041406;28;20469;-85
2021/05/03 13:03:38;;;;;;;3.03;2.83;;;23.80;29.90;;;;;;5039611;28;20445;-85
2021/05/03 13:06:13;;;;;;;7.63;4.40;;;23.30;30.00;;;;;;5050377;28;20451;-85
2021/05/03 13:08:59;;;;;;;4.30;3.50;;;23.00;30.80;;;;;;5059763;28;20448;-83
2021/05/03 13:29:08;;;;;;;3.00;2.70;;;20.80;32.70;;;;;;5060096;28;20492;-84
2021/05/03 13:31:36;;;;;;;2.90;2.70;;;20.70;32.90;;;;;;5041082;28;20552;-84
2021/05/03 13:34:05;;;;;;;3.67;3.00;;;20.30;33.10;;;;;;5027269;28;20456;-83
2021/05/03 13:36:33;;;;;;;3.07;2.60;;;20.30;33.30;;;;;;5021585;28;20521;-85
2021/05/03 13:38:59;;;;;;;3.00;2.57;;;20.80;33.70;;;;;;5028353;28;20457;-83